sensor_id;sensor_type;location;lat;lon;timestamp;P1;durP1;ratioP1;P2;durP2;ratioP2
36359;SDS011;22388;52.432;20.662;2022-11-06T00:00:04;23.48;;;11.02;;
36359;SDS011;22388;52.432;20.662;2022-11-06T00:02:30;23.52;;;9.77;;
36359;SDS011;22388;52.432;20.662;2022-11-06T00:04:56;29.33;;;10.13;;
36359;SDS011;22388;52.432;20.662;2022-11-06T00:07:47;25.52;;;9.65;;
36359;SDS011;22388;52.432;20.662;2022-11-06T00:10:13;27.45;;;10.18;;
36359;SDS011;22388;52.432;20.662;2022-11-06T00:12:40;30.45;;;10.40;;
36359;SDS011;22388;52.432;20.662;2022-11-06T00:15:06;25.17;;;10.43;;
36359;SDS011;22388;52.432;20.662;2022-11-06T00:17:31;22.83;;;10.00;;
36359;SDS011;22388;52.432;20.662;2022-11-06T00:19:57;28.10;;;10.85;;
36359;SDS011;22388;52.432;20.662;2022-11-06T00:22:23;30.90;;;11.30;;
36359;SDS011;22388;52.432;20.662;2022-11-06T00:24:48;26.40;;;10.52;;
36359;SDS011;22388;52.432;20.662;2022-11-06T00:27:14;27.20;;;10.45;;
36359;SDS011;22388;52.432;20.662;2022-11-06T00:29:40;27.30;;;10.10;;
36359;SDS011;22388;52.432;20.662;2022-11-06T00:32:06;23.17;;;10.38;;
36359;SDS011;22388;52.432;20.662;2022-11-06T00:34:31;33.67;;;11.07;;
36359;SDS011;22388;52.432;20.662;2022-11-06T00:36:57;21.90;;;9.80;;
36359;SDS011;22388;52.432;20.662;2022-11-06T00:39:23;25.63;;;10.65;;
36359;SDS011;22388;52.432;20.662;2022-11-06T00:41:48;23.63;;;9.80;;
36359;SDS011;22388;52.432;20.662;2022-11-06T00:44:14;24.65;;;9.75;;
36359;SDS011;22388;52.432;20.662;2022-11-06T00:46:39;21.25;;;10.07;;
36359;SDS011;22388;52.432;20.662;2022-11-06T00:49:05;26.80;;;10.32;;
36359;SDS011;22388;52.432;20.662;2022-11-06T00:51:32;20.10;;;9.65;;
36359;SDS011;22388;52.432;20.662;2022-11-06T00:54:00;28.65;;;10.80;;
36359;SDS011;22388;52.432;20.662;2022-11-06T00:56:27;24.48;;;10.05;;
36359;SDS011;22388;52.432;20.662;2022-11-06T00:58:53;25.50;;;10.73;;
36359;SDS011;22388;52.432;20.662;2022-11-06T01:01:37;26.08;;;10.07;;
36359;SDS011;22388;52.432;20.662;2022-11-06T01:04:18;23.05;;;9.70;;
36359;SDS011;22388;52.432;20.662;2022-11-06T01:06:46;22.35;;;9.57;;
36359;SDS011;22388;52.432;20.662;2022-11-06T01:09:13;21.75;;;10.48;;
36359;SDS011;22388;52.432;20.662;2022-11-06T01:11:41;27.33;;;10.30;;
36359;SDS011;22388;52.432;20.662;2022-11-06T01:14:09;23.75;;;10.63;;
36359;SDS011;22388;52.432;20.662;2022-11-06T01:16:36;30.08;;;10.93;;
36359;SDS011;22388;52.432;20.662;2022-11-06T01:19:02;24.83;;;10.43;;
36359;SDS011;22388;52.432;20.662;2022-11-06T01:21:33;22.75;;;9.63;;
36359;SDS011;22388;52.432;20.662;2022-11-06T01:24:01;26.27;;;9.85;;
36359;SDS011;22388;52.432;20.662;2022-11-06T01:26:30;23.13;;;9.73;;
36359;SDS011;22388;52.432;20.662;2022-11-06T01:28:56;25.88;;;10.68;;
36359;SDS011;22388;52.432;20.662;2022-11-06T01:31:23;24.77;;;10.38;;
36359;SDS011;22388;52.432;20.662;2022-11-06T01:33:50;24.27;;;10.35;;
36359;SDS011;22388;52.432;20.662;2022-11-06T01:36:17;24.73;;;10.65;;
36359;SDS011;22388;52.432;20.662;2022-11-06T01:38:44;20.98;;;9.27;;
36359;SDS011;22388;52.432;20.662;2022-11-06T01:41:13;29.75;;;9.45;;
36359;SDS011;22388;52.432;20.662;2022-11-06T01:43:47;23.35;;;11.02;;
36359;SDS011;22388;52.432;20.662;2022-11-06T01:46:17;23.58;;;9.90;;
36359;SDS011;22388;52.432;20.662;2022-11-06T01:51:53;28.00;;;9.68;;
36359;SDS011;22388;52.432;20.662;2022-11-06T01:54:21;24.75;;;9.40;;
36359;SDS011;22388;52.432;20.662;2022-11-06T01:56:48;28.65;;;9.95;;
36359;SDS011;22388;52.432;20.662;2022-11-06T01:59:16;22.42;;;9.50;;
36359;SDS011;22388;52.432;20.662;2022-11-06T02:01:43;21.20;;;9.40;;
36359;SDS011;22388;52.432;20.662;2022-11-06T02:04:42;20.05;;;8.75;;
36359;SDS011;22388;52.432;20.662;2022-11-06T02:07:01;28.60;;;9.45;;
36359;SDS011;22388;52.432;20.662;2022-11-06T02:09:28;22.02;;;8.57;;
36359;SDS011;22388;52.432;20.662;2022-11-06T02:12:00;35.53;;;9.75;;
36359;SDS011;22388;52.432;20.662;2022-11-06T02:14:32;26.92;;;9.85;;
36359;SDS011;22388;52.432;20.662;2022-11-06T02:17:10;25.63;;;10.20;;
36359;SDS011;22388;52.432;20.662;2022-11-06T02:23:12;25.60;;;9.23;;
36359;SDS011;22388;52.432;20.662;2022-11-06T02:28:20;21.52;;;8.85;;
36359;SDS011;22388;52.432;20.662;2022-11-06T02:30:49;22.05;;;9.25;;
36359;SDS011;22388;52.432;20.662;2022-11-06T02:33:17;22.45;;;9.27;;
36359;SDS011;22388;52.432;20.662;2022-11-06T02:36:06;18.25;;;8.82;;
36359;SDS011;22388;52.432;20.662;2022-11-06T02:38:39;28.02;;;10.15;;
36359;SDS011;22388;52.432;20.662;2022-11-06T02:41:15;25.50;;;9.45;;
36359;SDS011;22388;52.432;20.662;2022-11-06T02:43:44;21.42;;;8.57;;
36359;SDS011;22388;52.432;20.662;2022-11-06T02:46:14;20.98;;;8.27;;
36359;SDS011;22388;52.432;20.662;2022-11-06T02:48:46;22.35;;;8.38;;
36359;SDS011;22388;52.432;20.662;2022-11-06T02:51:14;20.05;;;8.60;;
36359;SDS011;22388;52.432;20.662;2022-11-06T02:53:41;22.77;;;9.45;;
36359;SDS011;22388;52.432;20.662;2022-11-06T02:56:10;22.75;;;9.45;;
36359;SDS011;22388;52.432;20.662;2022-11-06T02:58:42;17.50;;;8.30;;
36359;SDS011;22388;52.432;20.662;2022-11-06T03:01:15;28.73;;;9.68;;
36359;SDS011;22388;52.432;20.662;2022-11-06T03:03:47;24.25;;;9.43;;
36359;SDS011;22388;52.432;20.662;2022-11-06T03:08:51;22.55;;;9.02;;
36359;SDS011;22388;52.432;20.662;2022-11-06T03:11:28;23.30;;;8.73;;
36359;SDS011;22388;52.432;20.662;2022-11-06T03:22:03;19.52;;;9.18;;
36359;SDS011;22388;52.432;20.662;2022-11-06T03:27:18;26.45;;;9.32;;
36359;SDS011;22388;52.432;20.662;2022-11-06T03:29:48;20.65;;;8.18;;
36359;SDS011;22388;52.432;20.662;2022-11-06T03:32:22;20.42;;;8.95;;
36359;SDS011;22388;52.432;20.662;2022-11-06T03:34:55;21.15;;;9.23;;
36359;SDS011;22388;52.432;20.662;2022-11-06T03:37:27;18.60;;;9.40;;
36359;SDS011;22388;52.432;20.662;2022-11-06T03:39:56;23.83;;;9.35;;
36359;SDS011;22388;52.432;20.662;2022-11-06T03:42:29;24.88;;;9.05;;
36359;SDS011;22388;52.432;20.662;2022-11-06T03:44:57;24.00;;;9.30;;
36359;SDS011;22388;52.432;20.662;2022-11-06T03:47:29;22.58;;;10.00;;
36359;SDS011;22388;52.432;20.662;2022-11-06T03:50:00;22.02;;;9.60;;
36359;SDS011;22388;52.432;20.662;2022-11-06T03:52:34;22.35;;;9.52;;
36359;SDS011;22388;52.432;20.662;2022-11-06T03:57:34;21.55;;;9.75;;
36359;SDS011;22388;52.432;20.662;2022-11-06T04:00:04;23.55;;;9.45;;
36359;SDS011;22388;52.432;20.662;2022-11-06T04:02:32;17.02;;;8.30;;
36359;SDS011;22388;52.432;20.662;2022-11-06T04:05:02;19.92;;;7.30;;
36359;SDS011;22388;52.432;20.662;2022-11-06T04:07:35;19.70;;;7.63;;
36359;SDS011;22388;52.432;20.662;2022-11-06T04:10:04;16.08;;;7.75;;
36359;SDS011;22388;52.432;20.662;2022-11-06T04:12:52;13.23;;;7.32;;
36359;SDS011;22388;52.432;20.662;2022-11-06T04:15:42;23.10;;;8.55;;
36359;SDS011;22388;52.432;20.662;2022-11-06T04:18:12;20.05;;;8.30;;
36359;SDS011;22388;52.432;20.662;2022-11-06T04:20:41;21.83;;;8.02;;
36359;SDS011;22388;52.432;20.662;2022-11-06T04:26:55;15.70;;;7.90;;
36359;SDS011;22388;52.432;20.662;2022-11-06T04:29:30;13.10;;;7.10;;
36359;SDS011;22388;52.432;20.662;2022-11-06T04:32:01;14.43;;;7.13;;
36359;SDS011;22388;52.432;20.662;2022-11-06T04:37:27;19.42;;;8.32;;
36359;SDS011;22388;52.432;20.662;2022-11-06T04:42:54;22.83;;;12.48;;
36359;SDS011;22388;52.432;20.662;2022-11-06T04:45:41;29.48;;;12.98;;
36359;SDS011;22388;52.432;20.662;2022-11-06T04:48:11;22.75;;;13.10;;
36359;SDS011;22388;52.432;20.662;2022-11-06T04:50:56;26.60;;;14.80;;
36359;SDS011;22388;52.432;20.662;2022-11-06T04:53:24;32.08;;;17.02;;
36359;SDS011;22388;52.432;20.662;2022-11-06T04:55:51;38.55;;;17.60;;
36359;SDS011;22388;52.432;20.662;2022-11-06T04:58:18;30.55;;;14.13;;
36359;SDS011;22388;52.432;20.662;2022-11-06T05:00:45;30.70;;;14.15;;
36359;SDS011;22388;52.432;20.662;2022-11-06T05:03:12;26.02;;;13.88;;
36359;SDS011;22388;52.432;20.662;2022-11-06T05:05:38;30.65;;;13.63;;
36359;SDS011;22388;52.432;20.662;2022-11-06T05:08:04;27.90;;;12.73;;
36359;SDS011;22388;52.432;20.662;2022-11-06T05:10:30;26.15;;;11.80;;
36359;SDS011;22388;52.432;20.662;2022-11-06T05:12:56;32.75;;;12.43;;
36359;SDS011;22388;52.432;20.662;2022-11-06T05:15:21;28.70;;;12.90;;
36359;SDS011;22388;52.432;20.662;2022-11-06T05:17:47;45.30;;;14.10;;
36359;SDS011;22388;52.432;20.662;2022-11-06T05:20:12;26.30;;;13.73;;
36359;SDS011;22388;52.432;20.662;2022-11-06T05:22:41;88.32;;;13.93;;
36359;SDS011;22388;52.432;20.662;2022-11-06T05:25:25;113.35;;;16.25;;
36359;SDS011;22388;52.432;20.662;2022-11-06T05:27:53;193.17;;;16.20;;
36359;SDS011;22388;52.432;20.662;2022-11-06T05:33:41;145.30;;;13.45;;
36359;SDS011;22388;52.432;20.662;2022-11-06T05:36:06;214.15;;;13.95;;
36359;SDS011;22388;52.432;20.662;2022-11-06T05:38:32;470.27;;;17.30;;
36359;SDS011;22388;52.432;20.662;2022-11-06T05:40:58;475.58;;;17.48;;
36359;SDS011;22388;52.432;20.662;2022-11-06T05:43:24;507.40;;;17.15;;
36359;SDS011;22388;52.432;20.662;2022-11-06T05:45:49;396.38;;;15.85;;
36359;SDS011;22388;52.432;20.662;2022-11-06T05:48:15;329.33;;;15.75;;
36359;SDS011;22388;52.432;20.662;2022-11-06T05:50:41;471.55;;;17.60;;
36359;SDS011;22388;52.432;20.662;2022-11-06T05:53:06;445.65;;;17.15;;
36359;SDS011;22388;52.432;20.662;2022-11-06T05:55:32;412.15;;;16.27;;
36359;SDS011;22388;52.432;20.662;2022-11-06T05:57:57;204.80;;;14.25;;
36359;SDS011;22388;52.432;20.662;2022-11-06T06:00:23;343.45;;;16.30;;
36359;SDS011;22388;52.432;20.662;2022-11-06T06:02:49;199.52;;;13.80;;
36359;SDS011;22388;52.432;20.662;2022-11-06T06:05:15;196.00;;;12.68;;
36359;SDS011;22388;52.432;20.662;2022-11-06T06:07:41;234.13;;;13.40;;
36359;SDS011;22388;52.432;20.662;2022-11-06T06:10:06;176.20;;;12.75;;
36359;SDS011;22388;52.432;20.662;2022-11-06T06:12:32;287.55;;;14.40;;
36359;SDS011;22388;52.432;20.662;2022-11-06T06:14:58;109.50;;;12.02;;
36359;SDS011;22388;52.432;20.662;2022-11-06T06:17:24;131.30;;;11.93;;
36359;SDS011;22388;52.432;20.662;2022-11-06T06:19:50;121.18;;;12.52;;
36359;SDS011;22388;52.432;20.662;2022-11-06T06:22:16;156.63;;;13.82;;
36359;SDS011;22388;52.432;20.662;2022-11-06T06:24:41;198.65;;;13.57;;
36359;SDS011;22388;52.432;20.662;2022-11-06T06:27:07;348.50;;;17.15;;
36359;SDS011;22388;52.432;20.662;2022-11-06T06:29:33;188.25;;;13.70;;
36359;SDS011;22388;52.432;20.662;2022-11-06T06:31:59;253.30;;;14.85;;
36359;SDS011;22388;52.432;20.662;2022-11-06T06:34:25;198.25;;;14.73;;
36359;SDS011;22388;52.432;20.662;2022-11-06T06:36:51;206.05;;;16.40;;
36359;SDS011;22388;52.432;20.662;2022-11-06T06:39:17;197.05;;;15.80;;
36359;SDS011;22388;52.432;20.662;2022-11-06T06:41:46;254.50;;;18.17;;
36359;SDS011;22388;52.432;20.662;2022-11-06T06:44:12;108.47;;;15.35;;
36359;SDS011;22388;52.432;20.662;2022-11-06T06:46:37;118.35;;;15.18;;
36359;SDS011;22388;52.432;20.662;2022-11-06T06:49:03;218.98;;;18.67;;
36359;SDS011;22388;52.432;20.662;2022-11-06T06:51:29;96.47;;;15.43;;
36359;SDS011;22388;52.432;20.662;2022-11-06T06:53:55;75.97;;;14.23;;
36359;SDS011;22388;52.432;20.662;2022-11-06T06:56:20;120.53;;;15.23;;
36359;SDS011;22388;52.432;20.662;2022-11-06T06:58:46;115.18;;;15.50;;
36359;SDS011;22388;52.432;20.662;2022-11-06T07:01:12;405.38;;;22.23;;
36359;SDS011;22388;52.432;20.662;2022-11-06T07:03:38;293.58;;;17.45;;
36359;SDS011;22388;52.432;20.662;2022-11-06T07:06:04;240.18;;;17.30;;
36359;SDS011;22388;52.432;20.662;2022-11-06T07:08:30;152.60;;;16.33;;
36359;SDS011;22388;52.432;20.662;2022-11-06T07:10:57;357.08;;;18.27;;
36359;SDS011;22388;52.432;20.662;2022-11-06T07:13:26;142.88;;;15.23;;
36359;SDS011;22388;52.432;20.662;2022-11-06T07:15:52;271.15;;;19.50;;
36359;SDS011;22388;52.432;20.662;2022-11-06T07:18:19;311.58;;;17.30;;
36359;SDS011;22388;52.432;20.662;2022-11-06T07:20:45;335.67;;;21.27;;
36359;SDS011;22388;52.432;20.662;2022-11-06T07:23:10;74.32;;;14.40;;
36359;SDS011;22388;52.432;20.662;2022-11-06T07:25:36;211.30;;;17.10;;
36359;SDS011;22388;52.432;20.662;2022-11-06T07:28:02;155.35;;;17.80;;
36359;SDS011;22388;52.432;20.662;2022-11-06T07:30:29;435.05;;;20.67;;
36359;SDS011;22388;52.432;20.662;2022-11-06T07:32:55;178.18;;;18.33;;
36359;SDS011;22388;52.432;20.662;2022-11-06T07:35:21;424.88;;;20.63;;
36359;SDS011;22388;52.432;20.662;2022-11-06T07:37:46;391.83;;;20.27;;
36359;SDS011;22388;52.432;20.662;2022-11-06T07:40:12;313.08;;;18.35;;
36359;SDS011;22388;52.432;20.662;2022-11-06T07:42:39;292.05;;;17.15;;
36359;SDS011;22388;52.432;20.662;2022-11-06T07:45:04;37.78;;;13.50;;
36359;SDS011;22388;52.432;20.662;2022-11-06T07:47:31;182.32;;;14.50;;
36359;SDS011;22388;52.432;20.662;2022-11-06T07:49:56;144.65;;;13.40;;
36359;SDS011;22388;52.432;20.662;2022-11-06T07:52:22;131.50;;;12.63;;
36359;SDS011;22388;52.432;20.662;2022-11-06T07:54:47;148.10;;;14.55;;
36359;SDS011;22388;52.432;20.662;2022-11-06T07:57:13;185.00;;;12.35;;
36359;SDS011;22388;52.432;20.662;2022-11-06T07:59:39;415.27;;;16.83;;
36359;SDS011;22388;52.432;20.662;2022-11-06T08:02:05;112.85;;;11.77;;
36359;SDS011;22388;52.432;20.662;2022-11-06T08:04:30;338.08;;;15.38;;
36359;SDS011;22388;52.432;20.662;2022-11-06T08:06:56;216.30;;;16.75;;
36359;SDS011;22388;52.432;20.662;2022-11-06T08:09:22;227.57;;;20.95;;
36359;SDS011;22388;52.432;20.662;2022-11-06T08:11:49;71.60;;;15.45;;
36359;SDS011;22388;52.432;20.662;2022-11-06T08:14:15;75.05;;;18.15;;
36359;SDS011;22388;52.432;20.662;2022-11-06T08:16:41;155.57;;;18.42;;
36359;SDS011;22388;52.432;20.662;2022-11-06T08:19:06;124.93;;;17.83;;
36359;SDS011;22388;52.432;20.662;2022-11-06T08:21:32;91.47;;;15.88;;
36359;SDS011;22388;52.432;20.662;2022-11-06T08:23:58;242.50;;;17.80;;
36359;SDS011;22388;52.432;20.662;2022-11-06T08:26:23;161.30;;;19.30;;
36359;SDS011;22388;52.432;20.662;2022-11-06T08:28:49;193.93;;;19.20;;
36359;SDS011;22388;52.432;20.662;2022-11-06T08:31:14;65.95;;;14.63;;
36359;SDS011;22388;52.432;20.662;2022-11-06T08:33:40;61.42;;;13.18;;
36359;SDS011;22388;52.432;20.662;2022-11-06T08:36:06;28.48;;;14.15;;
36359;SDS011;22388;52.432;20.662;2022-11-06T08:38:32;131.95;;;12.85;;
36359;SDS011;22388;52.432;20.662;2022-11-06T08:41:02;62.38;;;12.35;;
36359;SDS011;22388;52.432;20.662;2022-11-06T08:43:29;64.22;;;12.00;;
36359;SDS011;22388;52.432;20.662;2022-11-06T08:45:54;172.85;;;12.95;;
36359;SDS011;22388;52.432;20.662;2022-11-06T08:48:20;202.40;;;12.35;;
36359;SDS011;22388;52.432;20.662;2022-11-06T08:50:45;186.40;;;11.77;;
36359;SDS011;22388;52.432;20.662;2022-11-06T08:53:11;81.85;;;10.98;;
36359;SDS011;22388;52.432;20.662;2022-11-06T08:55:37;81.72;;;10.50;;
36359;SDS011;22388;52.432;20.662;2022-11-06T08:58:06;140.45;;;11.60;;
36359;SDS011;22388;52.432;20.662;2022-11-06T09:00:32;220.50;;;12.65;;
36359;SDS011;22388;52.432;20.662;2022-11-06T09:02:59;41.33;;;10.70;;
36359;SDS011;22388;52.432;20.662;2022-11-06T09:05:26;143.30;;;12.35;;
36359;SDS011;22388;52.432;20.662;2022-11-06T09:07:52;108.88;;;11.77;;
36359;SDS011;22388;52.432;20.662;2022-11-06T09:10:18;288.33;;;14.70;;
36359;SDS011;22388;52.432;20.662;2022-11-06T09:12:44;67.20;;;10.90;;
36359;SDS011;22388;52.432;20.662;2022-11-06T09:15:09;39.15;;;10.30;;
36359;SDS011;22388;52.432;20.662;2022-11-06T09:17:45;109.35;;;11.52;;
36359;SDS011;22388;52.432;20.662;2022-11-06T09:20:12;82.90;;;10.65;;
36359;SDS011;22388;52.432;20.662;2022-11-06T09:22:38;71.68;;;11.07;;
36359;SDS011;22388;52.432;20.662;2022-11-06T09:25:04;93.90;;;10.77;;
36359;SDS011;22388;52.432;20.662;2022-11-06T09:27:30;40.65;;;14.13;;
36359;SDS011;22388;52.432;20.662;2022-11-06T09:29:56;138.98;;;15.25;;
36359;SDS011;22388;52.432;20.662;2022-11-06T09:32:21;18.70;;;12.10;;
36359;SDS011;22388;52.432;20.662;2022-11-06T09:34:48;33.05;;;14.02;;
36359;SDS011;22388;52.432;20.662;2022-11-06T09:37:14;49.38;;;13.18;;
36359;SDS011;22388;52.432;20.662;2022-11-06T09:39:40;66.25;;;14.40;;
36359;SDS011;22388;52.432;20.662;2022-11-06T09:42:16;84.07;;;15.90;;
36359;SDS011;22388;52.432;20.662;2022-11-06T09:45:10;79.60;;;17.15;;
36359;SDS011;22388;52.432;20.662;2022-11-06T09:50:05;61.10;;;15.98;;
36359;SDS011;22388;52.432;20.662;2022-11-06T09:52:34;43.42;;;17.23;;
36359;SDS011;22388;52.432;20.662;2022-11-06T09:55:30;102.38;;;17.80;;
36359;SDS011;22388;52.432;20.662;2022-11-06T09:58:00;26.77;;;16.42;;
36359;SDS011;22388;52.432;20.662;2022-11-06T10:00:27;60.65;;;16.25;;
36359;SDS011;22388;52.432;20.662;2022-11-06T10:02:54;67.30;;;16.50;;
36359;SDS011;22388;52.432;20.662;2022-11-06T10:05:41;29.02;;;15.75;;
36359;SDS011;22388;52.432;20.662;2022-11-06T10:10:45;33.97;;;18.38;;
36359;SDS011;22388;52.432;20.662;2022-11-06T10:13:27;57.92;;;17.73;;
36359;SDS011;22388;52.432;20.662;2022-11-06T10:21:22;66.43;;;19.35;;
36359;SDS011;22388;52.432;20.662;2022-11-06T10:26:22;34.03;;;19.30;;
36359;SDS011;22388;52.432;20.662;2022-11-06T10:31:50;32.35;;;19.42;;
36359;SDS011;22388;52.432;20.662;2022-11-06T10:34:30;31.40;;;19.10;;
36359;SDS011;22388;52.432;20.662;2022-11-06T10:39:33;29.05;;;19.95;;
36359;SDS011;22388;52.432;20.662;2022-11-06T10:42:01;30.27;;;19.10;;
36359;SDS011;22388;52.432;20.662;2022-11-06T10:44:32;36.00;;;20.00;;
36359;SDS011;22388;52.432;20.662;2022-11-06T10:47:11;33.85;;;20.63;;
36359;SDS011;22388;52.432;20.662;2022-11-06T11:00:24;25.23;;;14.60;;
36359;SDS011;22388;52.432;20.662;2022-11-06T11:02:56;25.55;;;14.27;;
36359;SDS011;22388;52.432;20.662;2022-11-06T11:05:30;20.88;;;13.85;;
36359;SDS011;22388;52.432;20.662;2022-11-06T11:08:02;22.08;;;14.95;;
36359;SDS011;22388;52.432;20.662;2022-11-06T11:10:31;24.42;;;15.40;;
36359;SDS011;22388;52.432;20.662;2022-11-06T11:12:59;22.67;;;14.93;;
36359;SDS011;22388;52.432;20.662;2022-11-06T11:15:33;25.45;;;15.00;;
36359;SDS011;22388;52.432;20.662;2022-11-06T11:21:02;20.55;;;12.70;;
36359;SDS011;22388;52.432;20.662;2022-11-06T11:24:05;23.67;;;12.65;;
36359;SDS011;22388;52.432;20.662;2022-11-06T11:26:38;25.00;;;12.75;;
36359;SDS011;22388;52.432;20.662;2022-11-06T11:29:14;22.90;;;13.07;;
36359;SDS011;22388;52.432;20.662;2022-11-06T11:31:44;25.67;;;13.32;;
36359;SDS011;22388;52.432;20.662;2022-11-06T11:34:15;19.08;;;13.20;;
36359;SDS011;22388;52.432;20.662;2022-11-06T11:39:26;19.40;;;12.98;;
36359;SDS011;22388;52.432;20.662;2022-11-06T11:42:40;23.05;;;13.25;;
36359;SDS011;22388;52.432;20.662;2022-11-06T11:47:34;21.25;;;11.30;;
36359;SDS011;22388;52.432;20.662;2022-11-06T11:53:00;18.67;;;10.90;;
36359;SDS011;22388;52.432;20.662;2022-11-06T11:55:29;19.10;;;11.77;;
36359;SDS011;22388;52.432;20.662;2022-11-06T11:57:56;18.33;;;11.73;;
36359;SDS011;22388;52.432;20.662;2022-11-06T12:00:24;20.05;;;11.00;;
36359;SDS011;22388;52.432;20.662;2022-11-06T12:02:55;19.92;;;11.63;;
36359;SDS011;22388;52.432;20.662;2022-11-06T12:05:27;17.70;;;11.32;;
36359;SDS011;22388;52.432;20.662;2022-11-06T12:07:57;19.33;;;11.15;;
36359;SDS011;22388;52.432;20.662;2022-11-06T12:12:55;23.73;;;11.30;;
36359;SDS011;22388;52.432;20.662;2022-11-06T12:15:26;20.10;;;11.52;;
36359;SDS011;22388;52.432;20.662;2022-11-06T12:17:58;20.95;;;11.70;;
36359;SDS011;22388;52.432;20.662;2022-11-06T12:26:17;17.77;;;11.53;;
36359;SDS011;22388;52.432;20.662;2022-11-06T12:28:46;20.38;;;11.98;;
36359;SDS011;22388;52.432;20.662;2022-11-06T12:31:18;21.73;;;12.60;;
36359;SDS011;22388;52.432;20.662;2022-11-06T12:33:50;19.25;;;11.75;;
36359;SDS011;22388;52.432;20.662;2022-11-06T12:36:17;18.80;;;11.27;;
36359;SDS011;22388;52.432;20.662;2022-11-06T12:38:48;22.33;;;11.20;;
36359;SDS011;22388;52.432;20.662;2022-11-06T12:44:13;20.27;;;11.38;;
36359;SDS011;22388;52.432;20.662;2022-11-06T12:47:16;22.10;;;10.55;;
36359;SDS011;22388;52.432;20.662;2022-11-06T13:00:27;18.70;;;11.13;;
36359;SDS011;22388;52.432;20.662;2022-11-06T13:03:01;21.20;;;10.63;;
36359;SDS011;22388;52.432;20.662;2022-11-06T13:05:34;18.52;;;10.77;;
36359;SDS011;22388;52.432;20.662;2022-11-06T13:10:34;15.95;;;9.85;;
36359;SDS011;22388;52.432;20.662;2022-11-06T13:26:56;18.73;;;10.57;;
36359;SDS011;22388;52.432;20.662;2022-11-06T13:29:25;19.88;;;10.20;;
36359;SDS011;22388;52.432;20.662;2022-11-06T13:31:53;21.10;;;10.10;;
36359;SDS011;22388;52.432;20.662;2022-11-06T13:34:23;19.30;;;9.98;;
36359;SDS011;22388;52.432;20.662;2022-11-06T13:36:50;16.85;;;10.57;;
36359;SDS011;22388;52.432;20.662;2022-11-06T13:41:49;19.45;;;11.27;;
36359;SDS011;22388;52.432;20.662;2022-11-06T13:44:16;23.75;;;11.63;;
36359;SDS011;22388;52.432;20.662;2022-11-06T13:46:52;19.65;;;11.05;;
36359;SDS011;22388;52.432;20.662;2022-11-06T13:49:32;24.58;;;11.80;;
36359;SDS011;22388;52.432;20.662;2022-11-06T13:52:04;21.77;;;11.57;;
36359;SDS011;22388;52.432;20.662;2022-11-06T14:06:08;17.33;;;10.40;;
36359;SDS011;22388;52.432;20.662;2022-11-06T14:11:39;24.65;;;13.23;;
36359;SDS011;22388;52.432;20.662;2022-11-06T14:14:22;17.77;;;10.95;;
36359;SDS011;22388;52.432;20.662;2022-11-06T14:19:41;22.70;;;11.90;;
36359;SDS011;22388;52.432;20.662;2022-11-06T14:22:32;20.65;;;10.00;;
36359;SDS011;22388;52.432;20.662;2022-11-06T14:25:07;20.02;;;11.20;;
36359;SDS011;22388;52.432;20.662;2022-11-06T14:32:54;18.38;;;9.55;;
36359;SDS011;22388;52.432;20.662;2022-11-06T14:40:58;17.65;;;9.02;;
36359;SDS011;22388;52.432;20.662;2022-11-06T14:43:25;17.73;;;9.70;;
36359;SDS011;22388;52.432;20.662;2022-11-06T14:48:32;19.52;;;9.63;;
36359;SDS011;22388;52.432;20.662;2022-11-06T14:53:37;16.27;;;8.88;;
36359;SDS011;22388;52.432;20.662;2022-11-06T14:56:11;19.48;;;10.57;;
36359;SDS011;22388;52.432;20.662;2022-11-06T14:59:04;19.80;;;9.30;;
36359;SDS011;22388;52.432;20.662;2022-11-06T15:01:32;19.30;;;11.48;;
36359;SDS011;22388;52.432;20.662;2022-11-06T15:04:03;17.48;;;10.50;;
36359;SDS011;22388;52.432;20.662;2022-11-06T15:08:59;22.15;;;9.27;;
36359;SDS011;22388;52.432;20.662;2022-11-06T15:19:12;15.65;;;9.00;;
36359;SDS011;22388;52.432;20.662;2022-11-06T15:27:50;14.63;;;9.38;;
36359;SDS011;22388;52.432;20.662;2022-11-06T15:30:20;17.15;;;9.55;;
36359;SDS011;22388;52.432;20.662;2022-11-06T15:32:46;19.65;;;8.82;;
36359;SDS011;22388;52.432;20.662;2022-11-06T15:35:13;18.13;;;9.02;;
36359;SDS011;22388;52.432;20.662;2022-11-06T15:37:41;16.23;;;8.20;;
36359;SDS011;22388;52.432;20.662;2022-11-06T15:42:47;16.63;;;8.07;;
36359;SDS011;22388;52.432;20.662;2022-11-06T15:47:40;12.30;;;7.03;;
36359;SDS011;22388;52.432;20.662;2022-11-06T15:52:36;11.65;;;5.57;;
36359;SDS011;22388;52.432;20.662;2022-11-06T15:55:02;12.65;;;6.05;;
36359;SDS011;22388;52.432;20.662;2022-11-06T15:57:28;15.90;;;7.97;;
36359;SDS011;22388;52.432;20.662;2022-11-06T16:02:46;15.52;;;8.35;;
36359;SDS011;22388;52.432;20.662;2022-11-06T16:07:51;17.35;;;8.63;;
36359;SDS011;22388;52.432;20.662;2022-11-06T16:10:18;16.35;;;8.45;;
36359;SDS011;22388;52.432;20.662;2022-11-06T16:12:50;15.65;;;9.50;;
36359;SDS011;22388;52.432;20.662;2022-11-06T16:18:21;17.45;;;9.73;;
36359;SDS011;22388;52.432;20.662;2022-11-06T16:21:06;21.85;;;11.43;;
36359;SDS011;22388;52.432;20.662;2022-11-06T16:23:39;19.92;;;11.70;;
36359;SDS011;22388;52.432;20.662;2022-11-06T16:26:10;27.13;;;12.60;;
36359;SDS011;22388;52.432;20.662;2022-11-06T16:28:41;16.88;;;8.80;;
36359;SDS011;22388;52.432;20.662;2022-11-06T16:31:09;15.85;;;8.27;;
36359;SDS011;22388;52.432;20.662;2022-11-06T16:33:39;13.40;;;7.87;;
36359;SDS011;22388;52.432;20.662;2022-11-06T16:36:05;15.90;;;8.23;;
36359;SDS011;22388;52.432;20.662;2022-11-06T16:38:36;18.75;;;10.25;;
36359;SDS011;22388;52.432;20.662;2022-11-06T16:41:03;17.33;;;10.02;;
36359;SDS011;22388;52.432;20.662;2022-11-06T16:43:30;20.40;;;9.68;;
36359;SDS011;22388;52.432;20.662;2022-11-06T16:45:56;17.10;;;9.95;;
36359;SDS011;22388;52.432;20.662;2022-11-06T16:48:26;19.23;;;11.50;;
36359;SDS011;22388;52.432;20.662;2022-11-06T16:50:56;16.85;;;9.93;;
36359;SDS011;22388;52.432;20.662;2022-11-06T16:53:25;22.50;;;12.90;;
36359;SDS011;22388;52.432;20.662;2022-11-06T16:55:52;22.77;;;13.32;;
36359;SDS011;22388;52.432;20.662;2022-11-06T16:58:19;24.85;;;14.63;;
36359;SDS011;22388;52.432;20.662;2022-11-06T17:00:48;26.23;;;13.73;;
36359;SDS011;22388;52.432;20.662;2022-11-06T17:03:20;24.67;;;14.18;;
36359;SDS011;22388;52.432;20.662;2022-11-06T17:05:53;27.27;;;14.73;;
36359;SDS011;22388;52.432;20.662;2022-11-06T17:08:33;30.63;;;16.33;;
36359;SDS011;22388;52.432;20.662;2022-11-06T17:13:47;33.00;;;18.30;;
36359;SDS011;22388;52.432;20.662;2022-11-06T17:16:15;34.35;;;17.98;;
36359;SDS011;22388;52.432;20.662;2022-11-06T17:18:42;35.78;;;20.83;;
36359;SDS011;22388;52.432;20.662;2022-11-06T17:21:12;42.30;;;23.13;;
36359;SDS011;22388;52.432;20.662;2022-11-06T17:23:41;38.42;;;22.58;;
36359;SDS011;22388;52.432;20.662;2022-11-06T17:26:15;41.05;;;21.58;;
36359;SDS011;22388;52.432;20.662;2022-11-06T17:28:48;33.15;;;21.13;;